Time;durP1;ratioP1;P1;durP2;ratioP2;P2;SDS_P1;SDS_P2;PMS_P1;PMS_P2;Temp;Humidity;BMP_temperature;BMP_pressure;BME280_temperature;BME280_humidity;BME280_pressure;Samples;Min_cycle;Max_cycle;Signal;HPM_P1;HPM_P2
2023/05/20 00:02:04;;;;;;;;;1.50;1.00;;;;;21.97;46.80;102064.02;110270;1250;21513;-38
2023/05/20 00:04:32;;;;;;;;;1.00;1.00;;;;;21.97;46.73;102064.73;110276;1250;24115;-39
2023/05/20 00:06:59;;;;;;;;;1.00;1.00;;;;;21.97;46.75;102065.21;110266;1265;20603;-42
2023/05/20 00:09:28;;;;;;;;;1.00;1.00;;;;;21.97;46.73;102063.78;110254;1251;22345;-39
2023/05/20 00:11:55;;;;;;;;;2.00;2.00;;;;;21.97;46.71;102065.41;110274;1265;23615;-39
2023/05/20 00:14:23;;;;;;;;;2.00;2.00;;;;;21.97;46.66;102063.40;110144;1265;21345;-39
2023/05/20 00:16:50;;;;;;;;;1.00;1.00;;;;;21.97;46.80;102061.08;110284;1265;20215;-39
2023/05/20 00:19:18;;;;;;;;;1.00;1.00;;;;;21.97;46.77;102061.46;110238;1266;19048;-40
2023/05/20 00:21:45;;;;;;;;;1.00;1.00;;;;;21.98;46.89;102065.36;110271;1251;20770;-38
2023/05/20 00:24:13;;;;;;;;;1.00;1.00;;;;;21.97;46.81;102063.27;110237;1251;23458;-39
2023/05/20 00:26:40;;;;;;;;;1.00;1.00;;;;;21.97;46.82;102065.26;110267;1250;19648;-39
2023/05/20 00:29:08;;;;;;;;;2.00;2.00;;;;;21.97;46.70;102066.38;110262;1251;19323;-39
2023/05/20 00:31:35;;;;;;;;;1.00;1.00;;;;;21.97;46.55;102062.31;110264;1265;21722;-38
2023/05/20 00:34:03;;;;;;;;;1.00;1.00;;;;;21.96;46.74;102058.45;110279;1265;19173;-39
2023/05/20 00:36:30;;;;;;;;;1.00;1.00;;;;;21.97;46.63;102056.54;110268;1266;23135;-38
2023/05/20 00:38:58;;;;;;;;;1.00;1.00;;;;;21.97;46.69;102057.43;110254;1265;20253;-39
2023/05/20 00:41:25;;;;;;;;;1.00;1.00;;;;;21.96;46.70;102053.58;110285;1251;21078;-38
2023/05/20 00:43:52;;;;;;;;;1.00;1.00;;;;;21.96;46.75;102055.66;110288;1265;19356;-42
2023/05/20 00:46:20;;;;;;;;;1.00;1.00;;;;;21.96;46.68;102054.05;110103;1251;217617;-38
2023/05/20 00:48:47;;;;;;;;;1.00;1.00;;;;;21.96;46.63;102054.05;110275;1265;19174;-40
2023/05/20 00:51:15;;;;;;;;;1.00;1.00;;;;;21.96;46.72;102049.68;110257;1265;20656;-39
2023/05/20 00:53:42;;;;;;;;;2.00;2.00;;;;;21.97;46.72;102048.18;110272;1265;21343;-40
2023/05/20 00:56:09;;;;;;;;;1.00;1.00;;;;;21.96;46.69;102046.95;110252;1257;21227;-38
2023/05/20 00:58:38;;;;;;;;;1.00;1.00;;;;;21.95;46.66;102046.67;110265;1265;20929;-39
2023/05/20 01:01:05;;;;;;;;;1.00;1.00;;;;;21.96;46.63;102050.23;110293;1265;20645;-39
2023/05/20 01:03:33;;;;;;;;;2.00;2.00;;;;;21.96;46.73;102044.80;110270;1251;19646;-39
2023/05/20 01:06:00;;;;;;;;;1.00;1.00;;;;;21.96;46.67;102045.35;110184;1265;19624;-38
2023/05/20 01:08:28;;;;;;;;;1.00;1.00;;;;;21.96;46.64;102044.60;110294;1265;20135;-38
2023/05/20 01:10:56;;;;;;;;;1.00;1.00;;;;;21.97;46.70;102047.09;110302;1265;19548;-37
2023/05/20 01:13:23;;;;;;;;;1.00;1.00;;;;;21.95;46.78;102048.65;110249;1265;21851;-38
2023/05/20 01:15:51;;;;;;;;;2.00;1.00;;;;;21.96;46.68;102047.91;110256;1251;21772;-39
2023/05/20 01:18:19;;;;;;;;;1.00;1.00;;;;;21.96;46.46;102050.25;110298;1265;19215;-38
2023/05/20 01:20:46;;;;;;;;;1.00;1.00;;;;;21.96;46.57;102052.27;110245;1251;23537;-38
2023/05/20 01:23:14;;;;;;;;;1.00;1.00;;;;;21.96;46.59;102050.80;110257;1251;20136;-38
2023/05/20 01:25:42;;;;;;;;;1.00;1.00;;;;;21.96;46.59;102049.52;110254;1251;23920;-38
2023/05/20 01:28:16;;;;;;;;;1.50;1.00;;;;;21.96;46.56;102046.23;110272;1265;23464;-38
2023/05/20 01:30:44;;;;;;;;;2.00;1.00;;;;;21.96;46.67;102044.60;110268;1265;24131;-39
2023/05/20 01:33:12;;;;;;;;;1.00;1.00;;;;;21.95;46.57;102041.21;110224;1250;23657;-40
2023/05/20 01:35:39;;;;;;;;;1.00;1.00;;;;;21.96;46.52;102044.96;110268;1251;19296;-38
2023/05/20 01:38:07;;;;;;;;;1.00;1.00;;;;;21.96;46.49;102043.89;110241;1265;22808;-38
2023/05/20 01:40:34;;;;;;;;;1.00;1.00;;;;;21.96;46.36;102042.58;110245;1265;19632;-39
2023/05/20 01:43:02;;;;;;;;;1.00;1.00;;;;;21.95;46.63;102035.92;110256;1265;20701;-38
2023/05/20 01:45:29;;;;;;;;;1.00;1.00;;;;;21.95;46.40;102035.92;110255;1251;21984;-38
2023/05/20 01:47:56;;;;;;;;;1.00;1.00;;;;;21.96;46.61;102035.38;110252;1265;19575;-38
2023/05/20 01:50:25;;;;;;;;;1.00;1.00;;;;;21.96;46.54;102033.71;110268;1265;19436;-38
2023/05/20 01:52:52;;;;;;;;;1.00;1.00;;;;;21.95;46.61;102032.34;110256;1251;21565;-39
2023/05/20 01:55:20;;;;;;;;;1.00;1.00;;;;;21.95;46.55;102032.14;110264;1265;19576;-38
2023/05/20 01:57:47;;;;;;;;;1.00;1.00;;;;;21.95;46.43;102033.39;110301;1251;21073;-38
2023/05/20 02:00:15;;;;;;;;;1.00;1.00;;;;;21.95;46.53;102033.99;110246;1265;22065;-38
2023/05/20 02:02:42;;;;;;;;;1.00;1.00;;;;;21.94;46.47;102029.29;110238;1265;21671;-39
2023/05/20 02:05:10;;;;;;;;;2.00;1.00;;;;;21.95;46.63;102033.39;110251;1265;23563;-38
2023/05/20 02:07:37;;;;;;;;;1.00;1.00;;;;;21.95;46.45;102028.71;110263;1265;19984;-40
2023/05/20 02:10:04;;;;;;;;;1.00;1.00;;;;;21.95;46.57;102028.52;110247;1265;19164;-38
2023/05/20 02:12:32;;;;;;;;;1.00;1.00;;;;;21.95;46.44;102028.17;110259;1266;19375;-38
2023/05/20 02:14:59;;;;;;;;;1.00;1.00;;;;;21.95;46.45;102029.03;110292;1265;20319;-38
2023/05/20 02:17:27;;;;;;;;;1.00;1.00;;;;;21.95;46.40;102030.73;110234;1265;19593;-39
2023/05/20 02:19:54;;;;;;;;;1.00;1.00;;;;;21.94;46.48;102030.42;110159;1265;19345;-41
2023/05/20 02:22:22;;;;;;;;;1.00;1.00;;;;;21.94;46.37;102033.35;110262;1249;21512;-38
2023/05/20 02:24:49;;;;;;;;;1.00;1.00;;;;;21.94;46.51;102030.98;110268;1265;19572;-39
2023/05/20 02:27:17;;;;;;;;;1.00;1.00;;;;;21.94;46.48;102028.83;110274;1251;20755;-38
2023/05/20 02:29:44;;;;;;;;;1.00;1.00;;;;;21.94;46.45;102027.34;110272;1250;22921;-38
2023/05/20 02:32:12;;;;;;;;;1.00;1.00;;;;;21.95;46.35;102026.56;110248;1250;19073;-38
2023/05/20 02:34:40;;;;;;;;;1.00;1.00;;;;;21.94;46.50;102026.24;110272;1257;20608;-38
2023/05/20 02:37:07;;;;;;;;;1.00;1.00;;;;;21.94;46.48;102024.64;110261;1251;21651;-38
2023/05/20 02:39:35;;;;;;;;;1.00;1.00;;;;;21.94;46.57;102028.27;110241;1250;19767;-38
2023/05/20 02:42:03;;;;;;;;;1.00;1.00;;;;;21.93;46.41;102031.45;110241;1265;20828;-38
2023/05/20 02:44:30;;;;;;;;;1.00;1.00;;;;;21.93;46.32;102028.52;110249;1265;23467;-38
2023/05/20 02:46:58;;;;;;;;;1.00;1.00;;;;;21.93;46.32;102032.13;110250;1265;19813;-38
2023/05/20 02:49:25;;;;;;;;;2.00;2.00;;;;;21.94;46.31;102033.71;110258;1251;20802;-38
2023/05/20 02:51:53;;;;;;;;;1.00;1.00;;;;;21.94;46.35;102033.38;110274;1266;22613;-38
2023/05/20 02:54:20;;;;;;;;;1.00;1.00;;;;;21.94;46.43;102032.61;110249;1265;23524;-38
2023/05/20 02:56:48;;;;;;;;;1.00;1.00;;;;;21.93;46.36;102031.45;110276;1257;19300;-38
2023/05/20 02:59:15;;;;;;;;;1.00;1.00;;;;;21.93;46.39;102032.91;110279;1265;20340;-38
2023/05/20 03:01:43;;;;;;;;;1.00;1.00;;;;;21.93;46.23;102028.11;110268;1251;19723;-37
2023/05/20 03:04:10;;;;;;;;;1.00;1.00;;;;;21.94;46.52;102033.15;110282;1265;20754;-37
2023/05/20 03:06:43;;;;;;;;;1.00;1.00;;;;;21.93;46.19;102027.96;110292;1265;20138;-41
2023/05/20 03:09:10;;;;;;;;;1.00;1.00;;;;;21.93;46.21;102032.36;110265;1251;24218;-38
2023/05/20 03:11:38;;;;;;;;;1.00;1.00;;;;;21.93;46.34;102024.91;110275;1251;19354;-38
2023/05/20 03:14:05;;;;;;;;;1.00;1.00;;;;;21.92;46.34;102021.85;110250;1250;21595;-37
2023/05/20 03:16:34;;;;;;;;;1.00;1.00;;;;;21.92;46.34;102023.48;110268;1265;19161;-38
2023/05/20 03:19:01;;;;;;;;;1.00;1.00;;;;;21.92;46.30;102021.30;110199;1251;23599;-38
2023/05/20 03:21:29;;;;;;;;;1.00;1.00;;;;;21.93;46.30;102017.81;110198;1250;20025;-38
2023/05/20 03:23:56;;;;;;;;;1.00;1.00;;;;;21.92;46.35;102023.32;110271;1265;19338;-38
2023/05/20 03:26:24;;;;;;;;;1.00;1.00;;;;;21.92;46.32;102022.08;110254;1265;20715;-38
2023/05/20 03:28:51;;;;;;;;;1.00;1.00;;;;;21.92;46.36;102023.15;110256;1251;21997;-39
2023/05/20 03:31:19;;;;;;;;;1.00;1.00;;;;;21.93;46.38;102030.20;110281;1266;19399;-38
2023/05/20 03:33:47;;;;;;;;;1.00;1.00;;;;;21.92;46.31;102031.36;110274;1265;20972;-39
2023/05/20 03:36:14;;;;;;;;;1.00;1.00;;;;;21.92;46.29;102035.02;110254;1265;20100;-38
2023/05/20 03:38:42;;;;;;;;;1.00;1.00;;;;;21.92;46.43;102038.29;110287;1257;24673;-38
2023/05/20 03:41:09;;;;;;;;;2.00;1.00;;;;;21.92;46.18;102039.02;110252;1251;20693;-39
2023/05/20 03:43:37;;;;;;;;;1.00;1.00;;;;;21.92;46.17;102041.05;110243;1265;21467;-38
2023/05/20 03:46:04;;;;;;;;;1.00;1.00;;;;;21.91;46.44;102041.43;110233;1265;19566;-40
2023/05/20 03:48:31;;;;;;;;;1.00;1.00;;;;;21.92;46.35;102041.77;110255;1251;20666;-38
2023/05/20 03:51:00;;;;;;;;;1.00;1.00;;;;;21.92;46.27;102042.05;110276;1251;21579;-38
2023/05/20 03:53:28;;;;;;;;;1.00;1.00;;;;;21.92;46.17;102042.11;110223;1265;20846;-39
2023/05/20 03:55:55;;;;;;;;;1.00;1.00;;;;;21.92;46.30;102043.34;110200;1265;20857;-38
2023/05/20 03:58:24;;;;;;;;;1.00;1.00;;;;;21.92;46.26;102046.48;110249;1251;21675;-39
2023/05/20 04:00:51;;;;;;;;;1.00;1.00;;;;;21.93;46.35;102050.93;110268;1257;21082;-41
2023/05/20 04:03:19;;;;;;;;;1.00;1.00;;;;;21.92;46.22;102053.04;110248;1251;19713;-39
2023/05/20 04:05:46;;;;;;;;;1.00;1.00;;;;;21.92;46.14;102054.81;110236;1265;23035;-38
2023/05/20 04:08:14;;;;;;;;;1.50;1.50;;;;;21.92;46.14;102055.70;110265;1265;20484;-38
2023/05/20 04:10:42;;;;;;;;;1.00;1.00;;;;;21.92;46.22;102055.94;110283;1265;20664;-38
2023/05/20 04:13:09;;;;;;;;;1.00;1.00;;;;;21.93;46.25;102057.69;110330;1251;21516;-39
2023/05/20 04:15:37;;;;;;;;;1.00;1.00;;;;;21.92;46.22;102055.02;110240;1249;19553;-41
2023/05/20 04:18:05;;;;;;;;;1.00;1.00;;;;;21.92;46.28;102056.48;110282;1265;19323;-38
2023/05/20 04:20:33;;;;;;;;;1.00;1.00;;;;;21.92;46.17;102056.28;110260;1251;20532;-37
2023/05/20 04:23:00;;;;;;;;;1.00;1.00;;;;;21.92;46.33;102051.70;110263;1251;19837;-37
2023/05/20 04:25:28;;;;;;;;;1.00;1.00;;;;;21.92;46.18;102049.15;110288;1251;19317;-40
2023/05/20 04:27:56;;;;;;;;;1.00;1.00;;;;;21.92;46.27;102052.83;110248;1251;21924;-39
2023/05/20 04:30:23;;;;;;;;;1.00;1.00;;;;;21.92;46.10;102051.57;110256;1265;19140;-38
2023/05/20 04:32:51;;;;;;;;;1.00;1.00;;;;;21.92;46.12;102051.06;110259;1251;20753;-39
2023/05/20 04:35:19;;;;;;;;;1.00;1.00;;;;;21.92;46.20;102054.64;110269;1265;23353;-38
2023/05/20 04:37:47;;;;;;;;;1.00;1.00;;;;;21.92;46.16;102054.47;110249;1265;19133;-37
2023/05/20 04:40:15;;;;;;;;;1.00;1.00;;;;;21.92;46.17;102057.20;110247;1265;20660;-37
2023/05/20 04:42:43;;;;;;;;;1.00;1.00;;;;;21.92;46.18;102055.05;110266;1265;23054;-38
2023/05/20 04:45:11;;;;;;;;;1.00;1.00;;;;;21.92;46.23;102057.02;110296;1265;19581;-41
2023/05/20 04:47:38;;;;;;;;;1.00;1.00;;;;;21.91;46.18;102053.48;110256;1265;23887;-38
2023/05/20 04:50:07;;;;;;;;;1.00;1.00;;;;;21.91;46.13;102055.80;110256;1265;21497;-38
2023/05/20 04:52:35;;;;;;;;;1.00;1.00;;;;;21.91;46.06;102063.67;110222;1251;19637;-39
2023/05/20 04:55:02;;;;;;;;;1.00;1.00;;;;;21.91;46.26;102060.05;110248;1265;20623;-40
2023/05/20 04:57:34;;;;;;;;;1.00;1.00;;;;;21.91;46.11;102061.86;110286;1265;20144;-37
2023/05/20 05:00:01;;;;;;;;;1.00;1.00;;;;;21.91;46.16;102057.67;110264;1265;23410;-38
2023/05/20 05:02:29;;;;;;;;;1.00;1.00;;;;;21.90;46.26;102050.67;110271;1251;20792;-38
2023/05/20 05:04:56;;;;;;;;;1.00;1.00;;;;;21.91;46.29;102056.08;110242;1265;21678;-39
2023/05/20 05:07:23;;;;;;;;;1.00;1.00;;;;;21.91;46.11;102055.69;110267;1266;21114;-38
2023/05/20 05:09:51;;;;;;;;;1.00;1.00;;;;;21.91;46.27;102056.23;110274;1265;20834;-39
2023/05/20 05:12:18;;;;;;;;;1.00;1.00;;;;;21.92;46.09;102059.62;110274;1251;21718;-39
2023/05/20 05:14:46;;;;;;;;;1.00;1.00;;;;;21.90;45.97;102058.45;110129;1265;19189;-38
2023/05/20 05:17:13;;;;;;;;;1.00;1.00;;;;;21.92;46.13;102058.50;110278;1266;20645;-38
2023/05/20 05:19:41;;;;;;;;;2.00;1.00;;;;;21.92;46.17;102062.83;110221;1260;20522;-39
2023/05/20 05:22:08;;;;;;;;;1.00;1.00;;;;;21.92;46.30;102057.89;110200;1265;19563;-39
2023/05/20 05:24:35;;;;;;;;;1.00;1.00;;;;;21.96;46.35;102062.09;110248;1265;19330;-39
2023/05/20 05:27:03;;;;;;;;;1.00;1.00;;;;;21.99;46.64;102060.72;110255;1265;23544;-39
2023/05/20 05:29:30;;;;;;;;;1.00;1.00;;;;;22.00;46.76;102062.23;110276;1265;19550;-40
2023/05/20 05:31:58;;;;;;;;;1.50;1.00;;;;;22.00;47.09;102062.98;110219;1265;19358;-40
2023/05/20 05:34:25;;;;;;;;;2.00;2.00;;;;;21.97;47.08;102062.30;110172;1265;22947;-40
2023/05/20 05:36:53;;;;;;;;;4.00;4.00;;;;;21.91;47.12;102060.37;110187;1251;19617;-41
2023/05/20 05:39:21;;;;;;;;;4.00;4.00;;;;;21.85;47.00;102062.06;110208;1250;20924;-41
2023/05/20 05:41:48;;;;;;;;;7.00;4.50;;;;;21.78;46.89;102063.55;110184;1251;23404;-41
2023/05/20 05:44:15;;;;;;;;;5.00;4.00;;;;;21.74;46.46;102062.78;110213;1251;19638;-41
2023/05/20 05:46:43;;;;;;;;;5.50;4.50;;;;;21.73;46.29;102065.88;110221;1265;20731;-41
2023/05/20 05:49:10;;;;;;;;;5.67;5.00;;;;;21.71;46.15;102064.62;110227;1265;21376;-40
2023/05/20 05:51:38;;;;;;;;;5.00;5.00;;;;;21.69;45.84;102064.21;110170;1265;19597;-43
2023/05/20 05:54:05;;;;;;;;;7.00;7.00;;;;;21.66;45.83;102067.23;110210;1251;20973;-40
2023/05/20 05:56:33;;;;;;;;;5.67;5.67;;;;;21.65;45.70;102066.95;110220;1266;23464;-41
2023/05/20 05:59:00;;;;;;;;;5.00;5.00;;;;;21.65;45.65;102068.13;110238;1265;19231;-40
2023/05/20 06:01:27;;;;;;;;;5.00;5.00;;;;;21.64;45.37;102063.30;110261;1265;19385;-39
2023/05/20 06:03:55;;;;;;;;;5.00;5.00;;;;;21.62;45.45;102066.04;110197;1265;20128;-38
2023/05/20 06:06:22;;;;;;;;;7.00;7.00;;;;;21.63;45.25;102067.72;110255;1250;19699;-40
2023/05/20 06:08:50;;;;;;;;;5.00;4.00;;;;;21.69;45.44;102065.52;110251;1251;23560;-38
2023/05/20 06:11:17;;;;;;;;;4.00;4.00;;;;;21.73;45.53;102063.48;110272;1265;21496;-40
2023/05/20 06:13:45;;;;;;;;;6.00;6.00;;;;;21.78;45.79;102065.09;110246;1265;23528;-38
2023/05/20 06:16:12;;;;;;;;;4.00;4.00;;;;;21.82;45.74;102060.34;110284;1251;19250;-38
2023/05/20 06:18:40;;;;;;;;;7.00;5.00;;;;;21.84;46.08;102058.31;110264;1265;22674;-38
2023/05/20 06:21:07;;;;;;;;;6.00;5.00;;;;;21.85;46.10;102057.73;110264;1265;19541;-40
2023/05/20 06:23:34;;;;;;;;;7.00;7.00;;;;;21.81;46.04;102061.35;110303;1265;22587;-38
2023/05/20 06:26:02;;;;;;;;;5.00;4.00;;;;;21.79;45.96;102055.34;110251;1251;21668;-39
2023/05/20 06:28:29;;;;;;;;;4.00;4.00;;;;;21.83;46.14;102052.63;110268;1265;22987;-38
2023/05/20 06:30:57;;;;;;;;;4.00;4.00;;;;;21.87;46.23;102057.86;110289;1266;19370;-39
2023/05/20 06:33:25;;;;;;;;;4.00;4.00;;;;;21.89;46.41;102054.61;110279;1251;20215;-38
2023/05/20 06:35:52;;;;;;;;;7.00;5.00;;;;;21.91;46.43;102052.02;110251;1265;19175;-42
2023/05/20 06:38:20;;;;;;;;;4.50;4.50;;;;;21.92;46.48;102049.70;110201;1265;20900;-38
2023/05/20 06:40:47;;;;;;;;;5.00;5.00;;;;;21.93;46.55;102050.33;110246;1251;21562;-39
2023/05/20 06:43:15;;;;;;;;;6.00;5.00;;;;;21.94;46.48;102049.73;110156;1265;19297;-39
2023/05/20 06:45:42;;;;;;;;;4.00;4.00;;;;;21.96;46.69;102051.36;110175;1249;23365;-40
2023/05/20 06:48:10;;;;;;;;;4.00;4.00;;;;;21.97;46.78;102046.27;110258;1265;21509;-38
2023/05/20 06:50:37;;;;;;;;;2.00;2.00;;;;;21.97;46.90;102044.81;110245;1251;19717;-39
2023/05/20 06:53:04;;;;;;;;;4.00;4.00;;;;;21.98;46.74;102047.64;110274;1250;20776;-39
2023/05/20 06:55:32;;;;;;;;;5.00;5.00;;;;;22.00;46.86;102048.16;110268;1265;23575;-38
2023/05/20 06:58:00;;;;;;;;;4.00;4.00;;;;;22.01;46.83;102049.41;110246;1265;23576;-38
2023/05/20 07:00:27;;;;;;;;;4.00;4.00;;;;;22.01;46.97;102050.80;110264;1265;19369;-39
2023/05/20 07:02:54;;;;;;;;;11.00;10.00;;;;;21.94;46.71;102048.25;110236;1265;21402;-38
2023/05/20 07:05:23;;;;;;;;;14.50;12.00;;;;;21.70;46.33;102049.33;110245;1265;19690;-39
2023/05/20 07:07:50;;;;;;;;;14.00;13.00;;;;;21.41;46.28;102055.19;110268;1251;22291;-38
2023/05/20 07:10:18;;;;;;;;;8.00;8.00;;;;;21.08;46.03;102050.33;110270;1265;20289;-38
2023/05/20 07:12:46;;;;;;;;;8.00;8.00;;;;;21.30;46.48;102047.48;110277;1251;22681;-39
2023/05/20 07:15:13;;;;;;;;;8.00;7.00;;;;;21.51;46.22;102045.55;110251;1265;20663;-38
2023/05/20 07:17:40;;;;;;;;;10.00;8.00;;;;;21.65;46.35;102045.86;110248;1259;23160;-39
2023/05/20 07:20:08;;;;;;;;;8.00;8.00;;;;;21.74;46.28;102040.23;110252;1265;19021;-38
2023/05/20 07:22:35;;;;;;;;;5.00;5.00;;;;;21.81;46.27;102039.14;110232;1251;24086;-38
2023/05/20 07:25:03;;;;;;;;;5.00;5.00;;;;;21.87;46.77;102040.20;110238;1266;20111;-39
2023/05/20 07:27:30;;;;;;;;;7.00;5.00;;;;;21.93;46.68;102036.77;110254;1251;19641;-38
2023/05/20 07:29:58;;;;;;;;;5.00;5.00;;;;;21.95;46.83;102033.57;110250;1251;20818;-39
2023/05/20 07:32:25;;;;;;;;;7.00;7.00;;;;;21.99;47.12;102031.90;110219;1251;21534;-39
2023/05/20 07:34:52;;;;;;;;;10.50;9.00;;;;;22.04;47.09;102034.64;110190;1265;23308;-44
2023/05/20 07:37:20;;;;;;;;;53.00;43.00;;;;;22.09;47.22;102034.95;110230;1251;21018;-39
2023/05/20 07:39:47;;;;;;;;;75.00;56.00;;;;;22.10;47.15;102032.82;110249;1250;22693;-42
2023/05/20 07:42:15;;;;;;;;;78.00;57.00;;;;;22.11;47.30;102029.98;110237;1251;19934;-40
2023/05/20 07:44:42;;;;;;;;;83.00;64.00;;;;;22.13;47.04;102031.45;110214;1265;19470;-42
2023/05/20 07:47:10;;;;;;;;;74.00;55.00;;;;;22.12;47.05;102026.96;110236;1251;23616;-40
2023/05/20 07:49:37;;;;;;;;;;;;;;;22.15;47.45;102024.90;110225;1251;19965;-41
2023/05/20 07:52:05;;;;;;;;;61.00;49.00;;;;;22.21;47.12;102018.26;110197;1250;21689;-40
2023/05/20 07:54:32;;;;;;;;;49.00;38.00;;;;;22.06;47.11;102021.02;110198;1251;21796;-41
2023/05/20 07:57:00;;;;;;;;;54.50;41.50;;;;;21.99;47.08;102014.10;110199;1257;23045;-41
2023/05/20 07:59:28;;;;;;;;;57.00;43.00;;;;;21.94;47.10;102015.00;110242;1257;23259;-41
2023/05/20 08:01:56;;;;;;;;;52.50;42.50;;;;;21.90;47.34;102013.52;110189;1265;23585;-40
2023/05/20 08:04:23;;;;;;;;;52.00;40.00;;;;;21.92;47.39;102015.13;110229;1265;20335;-42
2023/05/20 08:06:50;;;;;;;;;57.00;46.00;;;;;21.90;47.15;102012.96;110242;1266;19471;-42
2023/05/20 08:09:18;;;;;;;;;55.00;44.67;;;;;21.84;47.30;102011.98;110264;1265;20285;-41
2023/05/20 08:11:45;;;;;;;;;66.50;50.00;;;;;21.90;47.14;102012.31;110289;1265;22945;-40
2023/05/20 08:14:13;;;;;;;;;75.00;58.00;;;;;21.99;47.21;102010.78;110252;1265;22998;-41
2023/05/20 08:16:40;;;;;;;;;64.50;53.00;;;;;21.99;47.19;102008.48;110226;1251;21530;-41
2023/05/20 08:19:08;;;;;;;;;74.33;56.00;;;;;22.00;47.37;102008.90;110174;1265;19933;-40
2023/05/20 08:21:36;;;;;;;;;72.00;55.00;;;;;22.05;47.40;102007.09;110185;1265;20713;-39
2023/05/20 08:24:03;;;;;;;;;60.00;49.00;;;;;22.12;47.50;102009.84;110168;1265;23998;-41
2023/05/20 08:26:31;;;;;;;;;68.00;49.00;;;;;22.17;47.27;102009.02;110187;1251;19306;-41
2023/05/20 08:28:58;;;;;;;;;53.00;44.00;;;;;22.21;47.25;102011.09;110268;1265;22095;-42
2023/05/20 08:31:26;;;;;;;;;50.00;43.00;;;;;22.27;47.33;102003.64;110245;1266;21499;-40
2023/05/20 08:33:53;;;;;;;;;35.00;33.50;;;;;22.26;47.50;102003.94;110253;1265;19314;-47
2023/05/20 08:36:21;;;;;;;;;38.50;31.50;;;;;22.22;47.61;102003.08;110251;1266;20836;-41
2023/05/20 08:38:48;;;;;;;;;39.00;30.00;;;;;22.20;47.52;102002.86;110258;1265;20404;-40
2023/05/20 08:41:16;;;;;;;;;24.00;20.00;;;;;22.19;47.30;101999.00;110261;1251;19987;-41
2023/05/20 08:43:43;;;;;;;;;27.50;23.50;;;;;22.13;47.45;101991.08;110240;1265;22746;-41
2023/05/20 08:46:11;;;;;;;;;24.50;20.00;;;;;22.07;47.45;101987.21;110236;1265;23007;-41
2023/05/20 08:48:38;;;;;;;;;19.00;17.00;;;;;22.02;47.55;101989.92;110230;1265;19529;-41
2023/05/20 08:51:06;;;;;;;;;16.50;15.50;;;;;22.01;47.65;101988.38;110266;1265;20917;-39
2023/05/20 08:53:33;;;;;;;;;13.00;13.00;;;;;21.95;47.60;101990.09;110211;1250;21965;-39
2023/05/20 08:56:01;;;;;;;;;14.50;13.50;;;;;21.88;47.65;101979.70;110190;1251;22952;-39
2023/05/20 08:58:29;;;;;;;;;15.00;13.00;;;;;21.83;47.80;101983.17;110204;1265;23520;-39
2023/05/20 09:00:57;;;;;;;;;14.00;13.00;;;;;21.89;47.82;101978.92;110183;1265;21550;-40
2023/05/20 09:03:25;;;;;;;;;13.00;13.00;;;;;21.92;47.83;101976.98;110230;1251;21672;-39
2023/05/20 09:05:52;;;;;;;;;13.00;13.00;;;;;21.89;48.08;101980.48;110266;1265;22238;-39
2023/05/20 09:08:19;;;;;;;;;14.00;13.00;;;;;21.84;48.16;101977.72;110228;1250;21616;-38
2023/05/20 09:10:47;;;;;;;;;11.00;10.00;;;;;21.83;48.10;101975.42;110215;1266;21796;-41
2023/05/20 09:13:14;;;;;;;;;13.00;11.00;;;;;21.91;48.08;101976.48;110205;1265;21145;-40
2023/05/20 09:15:42;;;;;;;;;11.00;11.00;;;;;21.92;48.14;101972.20;110166;1265;20383;-40
2023/05/20 09:18:10;;;;;;;;;17.00;15.00;;;;;21.93;48.22;101968.09;110235;1265;19237;-40
2023/05/20 09:20:39;;;;;;;;;12.50;11.50;;;;;21.84;48.57;101967.72;110165;1251;23016;-43
2023/05/20 09:23:07;;;;;;;;;14.00;13.00;;;;;21.86;48.49;101970.61;110147;1255;23116;-40
2023/05/20 09:25:35;;;;;;;;;14.00;13.00;;;;;21.94;48.57;101970.52;110145;1265;19937;-38
2023/05/20 09:28:02;;;;;;;;;17.00;11.00;;;;;21.95;48.28;101968.09;110136;1251;22664;-39
2023/05/20 09:30:30;;;;;;;;;10.00;10.00;;;;;21.95;48.41;101967.39;110078;1251;21410;-39
2023/05/20 09:32:57;;;;;;;;;16.00;16.00;;;;;21.98;48.36;101963.63;110105;1251;23475;-40
2023/05/20 09:35:25;;;;;;;;;14.00;13.00;;;;;21.97;48.33;101962.25;110115;1265;20811;-39
2023/05/20 09:37:53;;;;;;;;;13.00;11.00;;;;;21.99;48.34;101959.88;110116;1251;20277;-40
2023/05/20 09:40:21;;;;;;;;;13.00;13.00;;;;;22.02;48.35;101958.04;110157;1265;21583;-40
2023/05/20 09:42:48;;;;;;;;;13.00;13.00;;;;;21.99;48.48;101957.27;110170;1265;21636;-39
2023/05/20 09:45:16;;;;;;;;;11.00;11.00;;;;;21.97;48.34;101957.30;110260;1251;20448;-39
2023/05/20 09:47:43;;;;;;;;;11.00;10.00;;;;;22.00;48.36;101956.80;110247;1265;19278;-39
2023/05/20 09:50:11;;;;;;;;;11.00;10.00;;;;;22.03;48.42;101952.89;110232;1251;20843;-40
2023/05/20 09:52:39;;;;;;;;;13.33;11.67;;;;;22.04;48.45;101949.89;110255;1250;21624;-39
2023/05/20 09:55:06;;;;;;;;;14.00;13.00;;;;;22.01;48.50;101944.02;110257;1265;19962;-39
2023/05/20 09:57:34;;;;;;;;;11.50;11.50;;;;;21.99;48.61;101946.95;110208;1259;21152;-39
2023/05/20 10:00:02;;;;;;;;;12.00;11.50;;;;;22.01;48.61;101949.80;110253;1250;20147;-39
2023/05/20 10:02:30;;;;;;;;;14.00;14.00;;;;;22.05;48.92;101950.53;110229;1250;20385;-39
2023/05/20 10:04:57;;;;;;;;;16.00;11.67;;;;;21.87;48.75;101948.67;110239;1266;22965;-41
2023/05/20 10:07:25;;;;;;;;;13.00;13.00;;;;;21.87;48.71;101948.81;110200;1265;20158;-41
2023/05/20 10:09:53;;;;;;;;;17.50;15.00;;;;;21.91;48.68;101943.94;110223;1265;23177;-42
2023/05/20 10:12:21;;;;;;;;;11.00;11.00;;;;;21.93;48.79;101946.27;110186;1265;23461;-40
2023/05/20 10:14:48;;;;;;;;;17.00;13.00;;;;;21.91;48.49;101944.08;110239;1249;21493;-39
2023/05/20 10:17:16;;;;;;;;;14.50;14.00;;;;;21.87;48.54;101942.71;110171;1265;20052;-40
2023/05/20 10:19:43;;;;;;;;;13.00;11.00;;;;;21.86;48.47;101936.25;110202;1265;21562;-40
2023/05/20 10:22:12;;;;;;;;;15.00;11.00;;;;;21.90;48.40;101938.71;110158;1260;20269;-39
2023/05/20 10:24:40;;;;;;;;;13.00;13.00;;;;;21.91;48.53;101935.34;110315;1251;21043;-38
2023/05/20 10:27:08;;;;;;;;;15.00;14.00;;;;;21.93;48.51;101930.09;110191;1265;19660;-39
2023/05/20 10:29:35;;;;;;;;;15.00;14.00;;;;;21.97;48.66;101929.30;110188;1265;22965;-37
2023/05/20 10:32:03;;;;;;;;;16.00;14.00;;;;;21.98;48.55;101934.11;110228;1257;19982;-39
2023/05/20 10:34:30;;;;;;;;;11.00;11.00;;;;;21.98;48.65;101937.42;110247;1265;19537;-38
2023/05/20 10:36:58;;;;;;;;;14.00;13.00;;;;;21.96;48.66;101930.48;110266;1265;23926;-39
2023/05/20 10:39:26;;;;;;;;;14.00;12.00;;;;;22.00;48.59;101924.58;110255;1265;19321;-38
2023/05/20 10:41:53;;;;;;;;;15.00;14.00;;;;;22.05;48.69;101922.06;110238;1265;19451;-39
2023/05/20 10:44:20;;;;;;;;;10.00;10.00;;;;;22.07;48.60;101910.94;110188;1265;20406;-39
2023/05/20 10:46:48;;;;;;;;;14.00;13.00;;;;;22.09;48.88;101912.19;110183;1249;20202;-43
2023/05/20 10:49:15;;;;;;;;;14.00;14.00;;;;;22.12;48.89;101911.21;110127;1266;19875;-39
2023/05/20 10:51:43;;;;;;;;;14.00;14.00;;;;;22.11;48.97;101915.52;110127;1265;20269;-39
2023/05/20 10:54:10;;;;;;;;;14.00;14.00;;;;;22.09;48.83;101910.79;110255;1251;20213;-40
2023/05/20 10:56:38;;;;;;;;;14.00;12.00;;;;;22.07;49.00;101911.82;110230;1265;19462;-41
2023/05/20 10:59:05;;;;;;;;;17.00;14.00;;;;;22.08;49.19;101907.02;110168;1265;20124;-39
2023/05/20 11:01:33;;;;;;;;;12.50;11.00;;;;;22.08;49.19;101906.33;110168;1251;23542;-40
2023/05/20 11:04:00;;;;;;;;;12.00;12.00;;;;;22.08;49.66;101903.77;110208;1265;20789;-40
2023/05/20 11:06:28;;;;;;;;;15.00;14.00;;;;;22.09;49.35;101904.59;110231;1265;20110;-40
2023/05/20 11:08:56;;;;;;;;;15.00;14.00;;;;;22.08;49.24;101902.88;110207;1250;19171;-40
2023/05/20 11:11:23;;;;;;;;;11.00;11.00;;;;;22.04;49.24;101900.89;110189;1265;23230;-38
2023/05/20 11:13:51;;;;;;;;;14.50;13.00;;;;;22.04;49.31;101899.45;110274;1265;20142;-40